createdAt,value
2019-03-21T00:00:31.339Z,17.37
2019-03-21T00:03:22.031Z,19.33
2019-03-21T00:06:14.394Z,18.90
2019-03-21T00:09:08.555Z,16.80
2019-03-21T00:12:11.436Z,18.03
2019-03-21T00:15:21.879Z,16.10
2019-03-21T00:18:14.916Z,15.77
2019-03-21T00:21:06.039Z,16.67
2019-03-21T00:23:57.140Z,17.50
2019-03-21T00:26:48.059Z,16.57
2019-03-21T00:29:39.093Z,15.93
2019-03-21T00:32:29.735Z,15.80
2019-03-21T00:35:20.749Z,16.83
2019-03-21T00:38:12.187Z,15.90
2019-03-21T00:41:01.940Z,16.00
2019-03-21T00:43:52.756Z,16.70
2019-03-21T00:46:43.607Z,16.27
2019-03-21T00:49:34.493Z,17.07
2019-03-21T00:52:25.220Z,19.10
2019-03-21T00:55:15.795Z,15.07
2019-03-21T00:58:06.188Z,15.47
2019-03-21T01:00:57.545Z,15.57
2019-03-21T01:03:48.850Z,15.73
2019-03-21T01:06:38.827Z,17.70
2019-03-21T01:09:29.280Z,16.53
2019-03-21T01:12:19.811Z,16.87
2019-03-21T01:15:12.551Z,15.33
2019-03-21T01:18:03.152Z,15.60
2019-03-21T01:20:54.009Z,15.47
2019-03-21T01:23:44.910Z,14.93
2019-03-21T01:26:35.292Z,15.50
2019-03-21T01:29:25.799Z,14.63
2019-03-21T01:32:16.444Z,16.73
2019-03-21T01:35:07.675Z,16.57
2019-03-21T01:37:58.580Z,15.17
2019-03-21T01:40:50.515Z,14.50
2019-03-21T01:43:41.359Z,15.40
2019-03-21T01:46:31.789Z,15.53
2019-03-21T01:49:22.691Z,16.87
2019-03-21T01:52:13.892Z,14.70
2019-03-21T01:55:05.567Z,14.93
2019-03-21T01:57:56.553Z,17.63
2019-03-21T02:00:47.162Z,15.93
2019-03-21T02:03:38.696Z,15.70
2019-03-21T02:06:30.076Z,16.70
2019-03-21T02:09:20.577Z,15.00
2019-03-21T02:12:11.275Z,15.40
2019-03-21T02:15:02.182Z,13.70
2019-03-21T02:17:52.972Z,15.57
2019-03-21T02:20:43.838Z,15.37
2019-03-21T02:23:34.739Z,14.90
2019-03-21T02:26:26.329Z,15.10
2019-03-21T02:29:16.703Z,16.80
2019-03-21T02:32:07.568Z,14.97
2019-03-21T02:34:58.912Z,14.33
2019-03-21T02:37:49.958Z,14.13
2019-03-21T02:40:40.990Z,13.80
2019-03-21T02:43:31.891Z,15.70
2019-03-21T02:46:22.670Z,14.07
2019-03-21T02:49:13.037Z,16.60
2019-03-21T02:52:03.664Z,14.27
2019-03-21T02:54:54.201Z,14.10
2019-03-21T02:57:44.925Z,15.23
2019-03-21T03:00:35.759Z,14.17
2019-03-21T03:03:27.111Z,13.27
2019-03-21T03:06:17.985Z,14.87
2019-03-21T03:09:10.148Z,15.17
2019-03-21T03:12:00.966Z,14.77
2019-03-21T03:14:51.870Z,13.87
2019-03-21T03:17:42.922Z,12.97
2019-03-21T03:20:33.593Z,14.40
2019-03-21T03:23:24.811Z,13.17
2019-03-21T03:26:15.796Z,12.50
2019-03-21T03:29:06.968Z,13.63
2019-03-21T03:31:57.635Z,13.10
2019-03-21T03:34:48.467Z,13.03
2019-03-21T03:37:38.707Z,13.40
2019-03-21T03:40:34.307Z,12.50
2019-03-21T03:43:25.390Z,11.93
2019-03-21T03:46:16.834Z,11.67
2019-03-21T03:49:07.828Z,11.80
2019-03-21T03:51:58.577Z,12.10
2019-03-21T03:54:49.785Z,12.00
2019-03-21T03:57:40.561Z,11.27
2019-03-21T04:00:31.573Z,11.93
2019-03-21T04:03:22.409Z,11.67
2019-03-21T04:06:13.111Z,12.57
2019-03-21T04:09:05.346Z,10.40
2019-03-21T04:11:57.528Z,11.07
2019-03-21T04:14:48.159Z,11.17
2019-03-21T04:17:39.160Z,11.63
2019-03-21T04:20:32.051Z,10.20
2019-03-21T04:23:22.874Z,12.00
2019-03-21T04:26:19.210Z,10.20
2019-03-21T04:29:09.760Z,10.10
2019-03-21T04:32:00.087Z,10.87
2019-03-21T04:34:50.779Z,9.70
2019-03-21T04:37:44.974Z,9.90
2019-03-21T04:40:35.486Z,10.27
2019-03-21T04:43:26.246Z,10.10
2019-03-21T04:46:15.994Z,9.67
2019-03-21T04:49:06.609Z,10.40
2019-03-21T04:51:56.874Z,9.50
2019-03-21T04:54:47.689Z,9.13
2019-03-21T04:57:38.510Z,9.40
2019-03-21T05:00:31.560Z,9.03
2019-03-21T05:03:22.600Z,9.27
2019-03-21T05:06:13.502Z,9.00
2019-03-21T05:09:05.908Z,10.63
2019-03-21T05:11:56.730Z,9.80
2019-03-21T05:14:47.028Z,8.50
2019-03-21T05:17:37.971Z,9.43
2019-03-21T05:20:29.475Z,8.60
2019-03-21T05:23:20.053Z,9.20
2019-03-21T05:26:11.403Z,8.43
2019-03-21T05:29:01.755Z,8.93
2019-03-21T05:31:52.384Z,8.47
2019-03-21T05:34:43.004Z,8.67
2019-03-21T05:37:33.755Z,8.50
2019-03-21T05:40:24.124Z,8.20
2019-03-21T05:43:19.682Z,9.53
2019-03-21T05:46:10.293Z,10.00
2019-03-21T05:49:01.136Z,9.73
2019-03-21T05:51:51.973Z,8.57
2019-03-21T05:54:41.804Z,7.93
2019-03-21T05:57:32.441Z,8.40
2019-03-21T06:00:28.654Z,8.40
2019-03-21T06:03:23.586Z,9.10
2019-03-21T06:06:18.789Z,8.43
2019-03-21T06:09:11.392Z,8.20
2019-03-21T06:12:02.185Z,10.20
2019-03-21T06:14:57.854Z,7.60
2019-03-21T06:18:02.633Z,9.30
2019-03-21T06:21:44.990Z,8.63
2019-03-21T06:25:02.938Z,8.97
2019-03-21T06:27:53.526Z,8.83
2019-03-21T06:30:44.437Z,8.00
2019-03-21T06:33:35.048Z,8.67
2019-03-21T06:36:25.392Z,8.47
2019-03-21T06:39:16.476Z,10.33
2019-03-21T06:42:06.864Z,9.60
2019-03-21T06:44:57.499Z,8.80
2019-03-21T06:47:48.189Z,9.00
2019-03-21T06:50:38.781Z,10.10
2019-03-21T06:53:29.706Z,8.53
2019-03-21T06:56:21.079Z,9.20
2019-03-21T06:59:11.755Z,9.47
2019-03-21T07:02:01.950Z,10.00
2019-03-21T07:04:52.838Z,9.80
2019-03-21T07:07:43.534Z,9.63
2019-03-21T07:10:34.593Z,10.17
2019-03-21T07:13:25.135Z,9.60
2019-03-21T07:16:16.994Z,10.40
2019-03-21T07:19:07.337Z,10.60
2019-03-21T07:21:57.629Z,9.80
2019-03-21T07:24:49.565Z,9.50
2019-03-21T07:27:40.078Z,9.70
2019-03-21T07:30:30.942Z,9.53
2019-03-21T07:33:21.253Z,10.73
2019-03-21T07:36:11.935Z,10.10
2019-03-21T07:39:02.598Z,8.37
2019-03-21T07:41:53.383Z,7.77
2019-03-21T07:44:44.647Z,8.83
2019-03-21T07:47:35.143Z,7.70
2019-03-21T07:50:25.778Z,9.60
2019-03-21T07:53:16.505Z,8.03
2019-03-21T07:56:07.793Z,9.13
2019-03-21T07:58:58.325Z,8.40
2019-03-21T08:01:49.332Z,8.60
2019-03-21T08:04:39.847Z,8.20
2019-03-21T08:07:30.430Z,8.53
2019-03-21T08:10:21.463Z,9.00
2019-03-21T08:13:12.297Z,9.43
2019-03-21T08:16:03.190Z,10.50
2019-03-21T08:18:54.933Z,9.53
2019-03-21T08:21:45.272Z,10.07
2019-03-21T08:24:36.082Z,9.27
2019-03-21T08:27:26.964Z,9.50
2019-03-21T08:30:33.734Z,10.00
2019-03-21T08:33:24.585Z,8.13
2019-03-21T08:36:15.366Z,8.33
2019-03-21T08:39:09.224Z,9.07
2019-03-21T08:42:00.070Z,8.93
2019-03-21T08:44:50.902Z,9.90
2019-03-21T08:47:41.534Z,9.40
2019-03-21T08:50:32.975Z,9.33
2019-03-21T08:53:23.961Z,8.23
2019-03-21T08:56:14.586Z,9.07
2019-03-21T08:59:05.295Z,10.80
2019-03-21T09:01:55.803Z,10.37
2019-03-21T09:04:46.578Z,10.70
2019-03-21T09:07:37.137Z,9.63
2019-03-21T09:10:28.041Z,11.70
2019-03-21T09:13:19.042Z,10.90
2019-03-21T09:16:10.898Z,10.33
2019-03-21T09:19:01.506Z,10.70
2019-03-21T09:21:53.279Z,9.87
2019-03-21T09:24:43.944Z,10.10
2019-03-21T09:27:34.761Z,10.13
2019-03-21T09:30:24.908Z,9.30
2019-03-21T09:33:15.984Z,12.03
2019-03-21T09:36:06.834Z,11.50
2019-03-21T09:38:57.823Z,10.77
2019-03-21T09:41:48.715Z,11.83
2019-03-21T09:44:39.839Z,10.30
2019-03-21T09:47:30.278Z,11.97
2019-03-21T09:50:29.475Z,9.27
2019-03-21T09:53:19.878Z,9.30
2019-03-21T09:56:10.518Z,11.03
2019-03-21T09:59:01.008Z,10.70
2019-03-21T10:01:54.347Z,10.47
2019-03-21T10:04:44.018Z,10.73
2019-03-21T10:07:34.816Z,10.70
2019-03-21T10:10:31.086Z,9.70
2019-03-21T10:13:21.597Z,9.70
2019-03-21T10:16:12.855Z,10.00
2019-03-21T10:19:03.716Z,10.93
2019-03-21T10:21:55.089Z,8.50
2019-03-21T10:24:45.968Z,9.07
2019-03-21T10:27:36.888Z,8.37
2019-03-21T10:30:36.969Z,9.70
2019-03-21T10:33:27.985Z,8.90
2019-03-21T10:36:18.873Z,8.90
2019-03-21T10:39:09.918Z,8.73
2019-03-21T10:42:00.880Z,9.03
2019-03-21T10:44:51.695Z,9.00
2019-03-21T10:47:42.294Z,9.50
2019-03-21T10:50:35.693Z,10.03
2019-03-21T10:53:26.556Z,9.67
2019-03-21T10:56:17.337Z,10.73
2019-03-21T10:59:07.716Z,9.13
2019-03-21T11:02:06.877Z,9.07
2019-03-21T11:04:51.057Z,10.23
2019-03-21T11:07:41.791Z,9.40
2019-03-21T11:10:32.821Z,8.80
2019-03-21T11:13:24.218Z,9.93
2019-03-21T11:16:14.983Z,8.70
2019-03-21T11:19:05.227Z,8.47
2019-03-21T11:22:05.693Z,9.57
2019-03-21T11:24:48.048Z,7.63
2019-03-21T11:27:39.020Z,8.07
2019-03-21T11:30:38.992Z,8.23
2019-03-21T11:33:29.607Z,7.47
2019-03-21T11:36:20.560Z,8.40
2019-03-21T11:39:11.302Z,8.17
2019-03-21T11:42:02.462Z,8.23
2019-03-21T11:44:53.432Z,7.70
2019-03-21T11:47:44.156Z,7.97
2019-03-21T11:50:36.351Z,7.33
2019-03-21T11:53:26.925Z,6.73
2019-03-21T11:56:17.795Z,9.10
2019-03-21T11:59:08.257Z,7.80
2019-03-21T12:01:58.869Z,8.70
2019-03-21T12:04:49.086Z,8.40
2019-03-21T12:07:39.529Z,9.70
2019-03-21T12:10:30.365Z,11.87
2019-03-21T12:13:21.008Z,7.40
2019-03-21T12:16:11.338Z,8.07
2019-03-21T12:19:02.337Z,9.20
2019-03-21T12:21:53.706Z,7.60
2019-03-21T12:24:44.571Z,7.10
2019-03-21T12:27:35.349Z,8.17
2019-03-21T12:30:38.572Z,8.70
2019-03-21T12:33:29.021Z,8.90
2019-03-21T12:36:19.746Z,8.80
2019-03-21T12:39:11.273Z,9.00
2019-03-21T12:42:01.970Z,9.90
2019-03-21T12:44:52.751Z,11.60
2019-03-21T12:47:43.317Z,9.60
2019-03-21T12:50:34.291Z,10.57
2019-03-21T12:53:25.156Z,9.20
2019-03-21T12:56:15.722Z,10.07
2019-03-21T12:59:06.730Z,8.20
2019-03-21T13:01:57.991Z,9.43
2019-03-21T13:04:49.421Z,9.37
2019-03-21T13:07:40.314Z,10.20
2019-03-21T13:10:31.061Z,11.10
2019-03-21T13:13:21.874Z,10.17
2019-03-21T13:16:13.163Z,10.13
2019-03-21T13:19:03.986Z,10.10
2019-03-21T13:21:54.772Z,9.87
2019-03-21T13:24:45.698Z,10.40
2019-03-21T13:27:36.209Z,10.43
2019-03-21T13:30:26.638Z,8.20
2019-03-21T13:33:18.027Z,10.00
2019-03-21T13:36:08.890Z,10.60
2019-03-21T13:39:00.622Z,9.70
2019-03-21T13:41:52.894Z,9.90
2019-03-21T13:44:43.686Z,9.50
2019-03-21T13:47:34.290Z,10.00
2019-03-21T13:50:25.076Z,10.83
2019-03-21T13:53:18.919Z,11.63
2019-03-21T13:56:08.727Z,10.80
2019-03-21T13:58:59.328Z,9.90
2019-03-21T14:01:50.074Z,10.57
2019-03-21T14:04:40.924Z,11.90
2019-03-21T14:07:31.900Z,10.30
2019-03-21T14:10:22.725Z,9.87
2019-03-21T14:13:13.331Z,12.37
2019-03-21T14:16:04.083Z,9.07
2019-03-21T14:18:54.654Z,9.50
2019-03-21T14:21:45.772Z,10.30
2019-03-21T14:24:36.820Z,9.50
2019-03-21T14:27:26.681Z,9.83
2019-03-21T14:30:17.871Z,9.70
2019-03-21T14:33:08.592Z,9.70
2019-03-21T14:35:59.501Z,9.73
2019-03-21T14:38:50.414Z,11.03
2019-03-21T14:41:41.331Z,10.33
2019-03-21T14:44:31.852Z,12.60
2019-03-21T14:47:22.541Z,12.80
2019-03-21T14:50:14.472Z,10.97
2019-03-21T14:53:05.244Z,11.00
2019-03-21T14:55:56.129Z,11.70
2019-03-21T14:58:47.858Z,9.50
2019-03-21T15:01:40.656Z,11.63
2019-03-21T15:04:31.191Z,12.50
2019-03-21T15:07:21.431Z,10.43
2019-03-21T15:10:14.083Z,10.23
2019-03-21T15:13:05.842Z,11.87
2019-03-21T15:15:56.829Z,10.50
2019-03-21T15:18:47.448Z,12.50
2019-03-21T15:21:38.838Z,13.40
2019-03-21T15:24:29.365Z,12.00
2019-03-21T15:27:20.846Z,10.80
2019-03-21T15:30:15.437Z,9.77
2019-03-21T15:33:05.941Z,12.00
2019-03-21T15:35:56.875Z,12.90
2019-03-21T15:38:47.818Z,12.17
2019-03-21T15:41:39.234Z,11.17
2019-03-21T15:44:30.171Z,10.00
2019-03-21T15:47:21.087Z,10.80
2019-03-21T15:50:33.684Z,9.43
2019-03-21T15:53:24.343Z,9.47
2019-03-21T15:56:14.949Z,9.60
2019-03-21T15:59:05.225Z,8.77
2019-03-21T16:01:56.238Z,9.50
2019-03-21T16:04:46.919Z,9.67
2019-03-21T16:07:37.953Z,8.87
2019-03-21T16:10:28.409Z,9.90
2019-03-21T16:13:19.721Z,11.07
2019-03-21T16:16:10.593Z,8.93
2019-03-21T16:19:01.264Z,10.77
2019-03-21T16:21:52.142Z,10.87
2019-03-21T16:24:43.319Z,10.23
2019-03-21T16:27:34.038Z,9.27
2019-03-21T16:30:25.050Z,12.97
2019-03-21T16:33:15.500Z,11.27
2019-03-21T16:36:06.097Z,10.00
2019-03-21T16:38:56.399Z,11.63
2019-03-21T16:41:47.231Z,10.23
2019-03-21T16:44:38.272Z,9.60
2019-03-21T16:47:29.534Z,10.27
2019-03-21T16:50:20.079Z,9.70
2019-03-21T16:53:10.615Z,14.00
2019-03-21T16:56:01.219Z,10.40
2019-03-21T16:58:52.149Z,8.90
2019-03-21T17:01:43.263Z,8.20
2019-03-21T17:04:34.338Z,8.13
2019-03-21T17:07:25.269Z,7.13
2019-03-21T17:10:16.325Z,8.10
2019-03-21T17:13:06.494Z,8.00
2019-03-21T17:15:56.881Z,8.73
2019-03-21T17:18:47.797Z,7.73
2019-03-21T17:21:38.505Z,8.50
2019-03-21T17:24:29.869Z,9.20
2019-03-21T17:27:20.397Z,8.23
2019-03-21T17:30:11.537Z,7.60
2019-03-21T17:33:02.651Z,7.87
2019-03-21T17:35:53.557Z,13.40
2019-03-21T17:38:43.504Z,9.67
2019-03-21T17:41:34.372Z,9.60
2019-03-21T17:44:25.593Z,9.47
2019-03-21T17:47:17.357Z,8.00
2019-03-21T17:50:10.284Z,6.97
2019-03-21T17:53:00.392Z,9.03
2019-03-21T17:55:51.085Z,8.83
2019-03-21T17:58:42.332Z,7.80
2019-03-21T18:01:33.084Z,8.83
2019-03-21T18:04:24.709Z,7.83
2019-03-21T18:07:15.444Z,7.10
2019-03-21T18:10:08.215Z,7.53
2019-03-21T18:12:59.464Z,8.40
2019-03-21T18:15:50.402Z,7.50
2019-03-21T18:18:40.352Z,8.07
2019-03-21T18:21:31.474Z,8.40
2019-03-21T18:24:23.122Z,8.30
2019-03-21T18:27:13.880Z,7.50
2019-03-21T18:30:05.522Z,8.23
2019-03-21T18:32:56.155Z,8.20
2019-03-21T18:35:46.227Z,8.87
2019-03-21T18:38:37.550Z,7.87
2019-03-21T18:41:27.923Z,6.87
2019-03-21T18:44:19.019Z,8.37
2019-03-21T18:47:10.216Z,7.47
2019-03-21T18:50:00.871Z,7.80
2019-03-21T18:52:52.597Z,7.73
2019-03-21T18:55:43.324Z,8.60
2019-03-21T18:58:34.429Z,9.97
2019-03-21T19:01:24.829Z,11.20
2019-03-21T19:04:16.850Z,11.17
2019-03-21T19:07:07.762Z,8.37
2019-03-21T19:09:58.118Z,9.20
2019-03-21T19:12:49.509Z,9.60
2019-03-21T19:15:40.250Z,10.40
2019-03-21T19:18:31.423Z,11.20
2019-03-21T19:21:21.151Z,12.13
2019-03-21T19:24:12.293Z,11.90
2019-03-21T19:27:02.578Z,12.10
2019-03-21T19:29:53.275Z,10.80
2019-03-21T19:32:44.315Z,9.43
2019-03-21T19:35:35.276Z,8.80
2019-03-21T19:38:27.147Z,9.13
2019-03-21T19:41:16.867Z,9.50
2019-03-21T19:44:08.763Z,9.40
2019-03-21T19:47:01.458Z,8.70
2019-03-21T19:49:52.259Z,8.83
2019-03-21T19:52:43.131Z,10.60
2019-03-21T19:55:33.474Z,29.50
2019-03-21T19:58:24.492Z,14.70
2019-03-21T20:01:15.895Z,24.53
2019-03-21T20:04:07.667Z,20.10
2019-03-21T20:06:58.598Z,12.90
2019-03-21T20:09:50.172Z,10.77
2019-03-21T20:12:41.241Z,11.07
2019-03-21T20:15:32.470Z,11.20
2019-03-21T20:18:23.642Z,10.70
2019-03-21T20:21:14.304Z,11.67
2019-03-21T20:24:05.569Z,10.93
2019-03-21T20:26:57.725Z,9.87
2019-03-21T20:29:48.823Z,10.50
2019-03-21T20:32:39.515Z,11.13
2019-03-21T20:35:30.288Z,10.63
2019-03-21T20:38:20.906Z,13.40
2019-03-21T20:41:11.726Z,11.40
2019-03-21T20:44:14.398Z,12.50
2019-03-21T20:46:55.154Z,10.67
2019-03-21T20:49:45.861Z,12.90
2019-03-21T20:52:36.721Z,10.17
2019-03-21T20:55:27.324Z,11.60
2019-03-21T20:58:18.400Z,10.57
2019-03-21T21:01:08.304Z,11.63
2019-03-21T21:03:58.806Z,11.50
2019-03-21T21:06:49.772Z,10.80
2019-03-21T21:09:41.132Z,12.40
2019-03-21T21:12:31.981Z,10.57
2019-03-21T21:15:22.823Z,10.50
2019-03-21T21:18:13.811Z,10.73
2019-03-21T21:21:04.464Z,11.50
2019-03-21T21:23:55.299Z,10.77
2019-03-21T21:26:45.990Z,10.40
2019-03-21T21:29:36.998Z,10.93
2019-03-21T21:32:27.940Z,12.30
2019-03-21T21:35:18.682Z,11.70
2019-03-21T21:38:09.478Z,14.03
2019-03-21T21:40:59.299Z,13.03
2019-03-21T21:43:50.443Z,12.10
2019-03-21T21:46:42.407Z,13.13
2019-03-21T21:49:33.356Z,11.70
2019-03-21T21:52:24.395Z,12.00
2019-03-21T21:55:15.205Z,12.23
2019-03-21T21:58:06.167Z,12.47
2019-03-21T22:00:56.942Z,11.70
2019-03-21T22:03:47.654Z,13.33
2019-03-21T22:06:38.219Z,12.63
2019-03-21T22:09:29.517Z,12.50
2019-03-21T22:12:20.330Z,10.83
2019-03-21T22:15:12.444Z,12.37
2019-03-21T22:18:02.868Z,12.60
2019-03-21T22:20:53.577Z,11.53
2019-03-21T22:23:44.603Z,11.37
2019-03-21T22:26:35.206Z,12.77
2019-03-21T22:29:25.988Z,12.43
2019-03-21T22:32:17.315Z,12.70
2019-03-21T22:35:08.726Z,11.83
2019-03-21T22:37:58.703Z,11.80
2019-03-21T22:40:49.515Z,11.50
2019-03-21T22:43:40.870Z,10.87
2019-03-21T22:46:31.180Z,12.63
2019-03-21T22:49:22.055Z,13.23
2019-03-21T22:52:12.986Z,13.73
2019-03-21T22:55:03.715Z,14.97
2019-03-21T22:57:54.500Z,12.20
2019-03-21T23:00:47.532Z,13.33
2019-03-21T23:03:38.751Z,14.00
2019-03-21T23:06:30.737Z,13.20
2019-03-21T23:09:21.981Z,13.23
2019-03-21T23:12:12.570Z,12.10
2019-03-21T23:15:04.205Z,13.70
2019-03-21T23:17:55.327Z,13.60
2019-03-21T23:20:46.347Z,12.60
2019-03-21T23:23:37.321Z,12.00
2019-03-21T23:26:28.192Z,13.40
2019-03-21T23:29:19.078Z,14.03
2019-03-21T23:32:10.319Z,15.30
2019-03-21T23:35:01.372Z,14.43
2019-03-21T23:37:52.900Z,13.77
2019-03-21T23:40:44.178Z,13.70
2019-03-21T23:43:34.827Z,14.03
2019-03-21T23:46:25.823Z,13.43
2019-03-21T23:49:16.399Z,13.90
2019-03-21T23:52:06.456Z,13.27
2019-03-21T23:54:57.712Z,14.83
2019-03-21T23:57:49.237Z,13.03
